Time;durP1;ratioP1;P1;durP2;ratioP2;P2;SDS_P1;SDS_P2;PMS_P1;PMS_P2;Temp;Humidity;BMP_temperature;BMP_pressure;BME280_temperature;BME280_humidity;BME280_pressure;Samples;Min_cycle;Max_cycle;Signal;HPM_P1;HPM_P2
2021/11/14 00:00:16;;;;;;;1.95;0.52;;;;;;;;;;5020850;28;20045;-56
2021/11/14 00:02:42;;;;;;;2.72;0.70;;;;;;;;;;5018769;28;20061;-56
2021/11/14 00:05:07;;;;;;;1.50;0.52;;;;;;;;;;5019568;28;20037;-54
2021/11/14 00:07:34;;;;;;;2.92;0.70;;;;;;;;;;5018565;28;20041;-55
2021/11/14 00:10:00;;;;;;;1.75;0.60;;;;;;;;;;5018939;28;20041;-56
2021/11/14 00:12:25;;;;;;;4.13;0.60;;;;;;;;;;5017420;28;20041;-56
2021/11/14 00:14:51;;;;;;;3.63;0.90;;;;;;;;;;5018759;28;20719;-58
2021/11/14 00:17:17;;;;;;;1.48;0.50;;;;;;;;;;5006491;28;20046;-58
2021/11/14 00:19:43;;;;;;;2.50;0.60;;;;;;;;;;5025033;28;20072;-56
2021/11/14 00:22:09;;;;;;;2.95;1.00;;;;;;;;;;5033409;28;20514;-57
2021/11/14 00:24:35;;;;;;;3.45;0.80;;;;;;;;;;5044075;28;20029;-57
2021/11/14 00:27:01;;;;;;;3.38;0.60;;;;;;;;;;5045199;28;20045;-55
2021/11/14 00:29:26;;;;;;;4.63;0.60;;;;;;;;;;5046503;28;20033;-57
2021/11/14 00:31:52;;;;;;;4.10;1.00;;;;;;;;;;5025181;28;20093;-54
2021/11/14 00:34:18;;;;;;;3.58;0.80;;;;;;;;;;5042990;28;20137;-56
2021/11/14 00:36:45;;;;;;;3.53;0.70;;;;;;;;;;5045188;28;20393;-56
2021/11/14 00:39:13;;;;;;;1.80;0.60;;;;;;;;;;5044191;28;20068;-56
2021/11/14 00:41:38;;;;;;;2.25;0.65;;;;;;;;;;5044097;28;20056;-58
2021/11/14 00:44:05;;;;;;;3.63;0.50;;;;;;;;;;5044738;28;20049;-57
2021/11/14 00:46:31;;;;;;;5.78;0.70;;;;;;;;;;5044399;28;20076;-56
2021/11/14 00:48:56;;;;;;;1.83;0.60;;;;;;;;;;5044386;28;20032;-55
2021/11/14 00:51:28;;;;;;;3.15;0.70;;;;;;;;;;5045743;28;20052;-57
2021/11/14 00:53:55;;;;;;;3.05;0.70;;;;;;;;;;5044292;28;20044;-54
2021/11/14 00:56:21;;;;;;;0.93;0.50;;;;;;;;;;5045844;28;20025;-57
2021/11/14 00:58:47;;;;;;;2.03;0.55;;;;;;;;;;5045118;28;20047;-57
2021/11/14 01:01:12;;;;;;;2.90;0.80;;;;;;;;;;5045730;28;20049;-56
2021/11/14 01:03:38;;;;;;;5.03;0.82;;;;;;;;;;5046484;28;20051;-58
2021/11/14 01:06:04;;;;;;;2.92;0.80;;;;;;;;;;5048633;28;20552;-57
2021/11/14 01:08:30;;;;;;;1.85;0.60;;;;;;;;;;5046338;28;20175;-55
2021/11/14 01:10:57;;;;;;;7.25;0.85;;;;;;;;;;5046952;28;20068;-57
2021/11/14 01:13:23;;;;;;;2.55;0.77;;;;;;;;;;5046802;28;20044;-58
2021/11/14 01:15:50;;;;;;;4.55;1.08;;;;;;;;;;5047601;28;20096;-53
2021/11/14 01:18:16;;;;;;;8.10;0.85;;;;;;;;;;5048736;28;20230;-57
2021/11/14 01:20:45;;;;;;;8.43;1.10;;;;;;;;;;5014355;28;20036;-53
2021/11/14 01:23:12;;;;;;;4.38;1.20;;;;;;;;;;5029858;28;20420;-55
2021/11/14 01:25:38;;;;;;;8.40;1.13;;;;;;;;;;5028446;28;20049;-56
2021/11/14 01:28:04;;;;;;;6.18;1.55;;;;;;;;;;5029725;28;20033;-58
2021/11/14 01:30:31;;;;;;;4.13;1.30;;;;;;;;;;5028836;28;20037;-54
2021/11/14 01:32:58;;;;;;;4.50;1.50;;;;;;;;;;5028377;28;20033;-57
2021/11/14 01:35:25;;;;;;;4.45;1.10;;;;;;;;;;5026902;28;20041;-58
2021/11/14 01:37:51;;;;;;;5.60;0.70;;;;;;;;;;5028562;28;20125;-57
2021/11/14 01:40:23;;;;;;;2.80;1.05;;;;;;;;;;5028544;28;20057;-57
2021/11/14 01:42:49;;;;;;;2.00;0.80;;;;;;;;;;5028661;28;20126;-55
2021/11/14 01:45:16;;;;;;;7.22;0.90;;;;;;;;;;5029074;28;20108;-56
2021/11/14 01:47:42;;;;;;;3.78;1.00;;;;;;;;;;5048657;28;20055;-53
2021/11/14 01:50:11;;;;;;;7.00;1.15;;;;;;;;;;5046462;28;20048;-53
2021/11/14 01:52:37;;;;;;;2.92;0.70;;;;;;;;;;5046201;28;20135;-57
2021/11/14 01:55:04;;;;;;;3.25;0.80;;;;;;;;;;5016867;28;20029;-53
2021/11/14 01:57:30;;;;;;;2.97;0.82;;;;;;;;;;5022541;28;20072;-58
2021/11/14 01:59:56;;;;;;;8.02;0.90;;;;;;;;;;5021454;28;20472;-55
2021/11/14 02:02:22;;;;;;;2.97;0.90;;;;;;;;;;5019380;28;20585;-56
2021/11/14 02:04:48;;;;;;;2.53;0.70;;;;;;;;;;5020133;28;20042;-57
2021/11/14 02:07:15;;;;;;;4.07;0.70;;;;;;;;;;5020490;28;20046;-56
2021/11/14 02:09:43;;;;;;;2.13;0.73;;;;;;;;;;5020141;28;20044;-55
2021/11/14 02:12:09;;;;;;;4.72;0.80;;;;;;;;;;5020112;28;20077;-55
2021/11/14 02:14:35;;;;;;;2.13;0.70;;;;;;;;;;5019275;28;20045;-56
2021/11/14 02:17:03;;;;;;;2.45;0.70;;;;;;;;;;5020380;28;20040;-55
2021/11/14 02:19:29;;;;;;;4.57;0.75;;;;;;;;;;5003272;28;20383;-57
2021/11/14 02:21:55;;;;;;;2.60;0.60;;;;;;;;;;5020422;28;20057;-57
2021/11/14 02:24:21;;;;;;;2.35;0.73;;;;;;;;;;5002862;28;20501;-56
2021/11/14 02:26:47;;;;;;;1.35;0.50;;;;;;;;;;5021212;28;20110;-58
2021/11/14 02:29:13;;;;;;;2.85;0.60;;;;;;;;;;5020859;28;20148;-54
2021/11/14 02:31:39;;;;;;;3.40;0.73;;;;;;;;;;5002275;28;20528;-56
2021/11/14 02:34:05;;;;;;;1.98;0.60;;;;;;;;;;5021545;28;20038;-54
2021/11/14 02:36:31;;;;;;;1.60;0.50;;;;;;;;;;5019011;28;20041;-55
2021/11/14 02:38:57;;;;;;;2.88;0.80;;;;;;;;;;5021457;28;20048;-57
2021/11/14 02:41:23;;;;;;;2.58;0.82;;;;;;;;;;5019161;28;20399;-56
2021/11/14 02:43:51;;;;;;;2.63;0.65;;;;;;;;;;5019934;28;20523;-54
2021/11/14 02:46:17;;;;;;;7.53;0.85;;;;;;;;;;5020378;28;20365;-57
2021/11/14 02:48:43;;;;;;;3.80;0.55;;;;;;;;;;5026357;28;20037;-56
2021/11/14 02:51:11;;;;;;;1.63;0.70;;;;;;;;;;5027786;28;20047;-54
2021/11/14 02:53:37;;;;;;;5.55;0.80;;;;;;;;;;5025146;28;20045;-57
2021/11/14 02:56:03;;;;;;;1.70;0.55;;;;;;;;;;5026060;28;20034;-54
2021/11/14 02:58:30;;;;;;;2.25;0.60;;;;;;;;;;5021640;28;20045;-57
2021/11/14 03:01:02;;;;;;;5.00;0.73;;;;;;;;;;5021121;28;20517;-57
2021/11/14 03:03:28;;;;;;;2.03;0.70;;;;;;;;;;5043555;28;20037;-59
2021/11/14 03:05:54;;;;;;;2.50;0.65;;;;;;;;;;5045248;28;20145;-57
2021/11/14 03:08:20;;;;;;;6.93;0.70;;;;;;;;;;5046717;28;20493;-58
2021/11/14 03:10:46;;;;;;;3.38;0.90;;;;;;;;;;5029928;28;20042;-55
2021/11/14 03:13:13;;;;;;;3.00;0.90;;;;;;;;;;5019351;28;20045;-57
2021/11/14 03:15:42;;;;;;;2.15;0.70;;;;;;;;;;5019938;28;20041;-57
2021/11/14 03:18:08;;;;;;;4.47;0.85;;;;;;;;;;5036386;28;21077;-57
2021/11/14 03:20:35;;;;;;;2.28;0.60;;;;;;;;;;5021848;28;20037;-56
2021/11/14 03:23:01;;;;;;;3.25;0.80;;;;;;;;;;5021071;28;20045;-57
2021/11/14 03:25:28;;;;;;;2.95;0.70;;;;;;;;;;5021755;28;20095;-54
2021/11/14 03:27:54;;;;;;;7.35;1.08;;;;;;;;;;5021684;28;20119;-58
2021/11/14 03:30:21;;;;;;;6.22;1.08;;;;;;;;;;5020955;28;21953;-57
2021/11/14 03:32:47;;;;;;;2.70;0.90;;;;;;;;;;5019495;28;20046;-56
2021/11/14 03:35:13;;;;;;;3.53;0.88;;;;;;;;;;5021717;28;20037;-56
2021/11/14 03:37:39;;;;;;;3.05;0.82;;;;;;;;;;5018094;28;21935;-59
2021/11/14 03:40:06;;;;;;;2.85;0.80;;;;;;;;;;5020990;28;20042;-55
2021/11/14 03:42:32;;;;;;;2.55;0.88;;;;;;;;;;5019392;28;20045;-58
2021/11/14 03:44:58;;;;;;;5.35;1.88;;;;;;;;;;5018625;28;20049;-55
2021/11/14 03:47:24;;;;;;;2.70;0.85;;;;;;;;;;5018914;28;20029;-56
2021/11/14 03:49:50;;;;;;;6.07;0.88;;;;;;;;;;5019033;28;20383;-58
2021/11/14 03:52:15;;;;;;;4.63;0.95;;;;;;;;;;5020492;28;20064;-58
2021/11/14 03:54:42;;;;;;;3.25;1.00;;;;;;;;;;5016206;28;20509;-58
2021/11/14 03:57:08;;;;;;;2.42;0.73;;;;;;;;;;5006445;28;20032;-57
2021/11/14 03:59:34;;;;;;;3.28;0.60;;;;;;;;;;5024748;28;20045;-56
2021/11/14 04:02:01;;;;;;;6.18;1.00;;;;;;;;;;5025152;28;20049;-57
2021/11/14 04:04:27;;;;;;;2.90;0.90;;;;;;;;;;5025401;28;20049;-59
2021/11/14 04:06:53;;;;;;;10.55;1.90;;;;;;;;;;5024609;28;20469;-59
2021/11/14 04:09:18;;;;;;;8.43;2.00;;;;;;;;;;5026659;28;20881;-57
2021/11/14 04:11:44;;;;;;;4.65;1.75;;;;;;;;;;5027547;28;20586;-57
2021/11/14 04:14:10;;;;;;;6.18;1.70;;;;;;;;;;5035404;28;20561;-59
2021/11/14 04:16:36;;;;;;;7.07;3.00;;;;;;;;;;5018482;28;20068;-57
2021/11/14 04:19:02;;;;;;;10.40;2.90;;;;;;;;;;5019237;28;20055;-57
2021/11/14 04:21:28;;;;;;;6.88;2.38;;;;;;;;;;5016430;28;20053;-58
2021/11/14 04:23:54;;;;;;;10.38;3.40;;;;;;;;;;5018767;28;20034;-57
2021/11/14 04:26:20;;;;;;;10.90;2.72;;;;;;;;;;5019235;28;20143;-56
2021/11/14 04:28:46;;;;;;;4.93;2.25;;;;;;;;;;5019852;28;20033;-53
2021/11/14 04:31:12;;;;;;;5.65;2.25;;;;;;;;;;5020552;28;20099;-57
2021/11/14 04:33:38;;;;;;;7.25;1.80;;;;;;;;;;5016563;28;20105;-58
2021/11/14 04:36:04;;;;;;;7.70;2.15;;;;;;;;;;5022715;28;20127;-57
2021/11/14 04:38:30;;;;;;;5.55;1.50;;;;;;;;;;5022503;28;20141;-57
2021/11/14 04:40:56;;;;;;;3.65;1.30;;;;;;;;;;5022434;28;20165;-56
2021/11/14 04:43:22;;;;;;;3.83;1.17;;;;;;;;;;5019774;28;20057;-56
2021/11/14 04:45:49;;;;;;;4.97;1.20;;;;;;;;;;5021772;28;20042;-57
2021/11/14 04:48:16;;;;;;;3.55;0.98;;;;;;;;;;5021562;28;20124;-57
2021/11/14 04:50:42;;;;;;;5.47;1.20;;;;;;;;;;5019776;28;20044;-57
2021/11/14 04:53:08;;;;;;;2.72;0.90;;;;;;;;;;5021324;28;20041;-57
2021/11/14 04:55:34;;;;;;;5.53;1.30;;;;;;;;;;5021551;28;21985;-58
2021/11/14 04:58:00;;;;;;;5.95;1.60;;;;;;;;;;5021857;28;20500;-59
2021/11/14 05:00:32;;;;;;;9.88;1.77;;;;;;;;;;5021637;28;20908;-57
2021/11/14 05:02:58;;;;;;;8.15;2.08;;;;;;;;;;5022428;28;20049;-57
2021/11/14 05:05:24;;;;;;;8.30;2.05;;;;;;;;;;5021592;28;20037;-56
2021/11/14 05:07:50;;;;;;;5.45;1.77;;;;;;;;;;5024072;28;20045;-57
2021/11/14 05:10:16;;;;;;;6.07;1.70;;;;;;;;;;5026691;28;21911;-57
2021/11/14 05:12:41;;;;;;;4.03;1.42;;;;;;;;;;5025439;28;20025;-57
2021/11/14 05:15:10;;;;;;;5.95;1.48;;;;;;;;;;5024564;28;20543;-56
2021/11/14 05:17:37;;;;;;;6.32;2.13;;;;;;;;;;4981013;28;20042;-56
2021/11/14 05:20:03;;;;;;;3.08;1.25;;;;;;;;;;4982415;28;20030;-55
2021/11/14 05:22:29;;;;;;;5.20;1.42;;;;;;;;;;4981617;28;20128;-58
2021/11/14 05:24:55;;;;;;;5.10;1.55;;;;;;;;;;4981881;28;20065;-57
2021/11/14 05:27:21;;;;;;;6.75;1.58;;;;;;;;;;4983527;28;20510;-58
2021/11/14 05:29:47;;;;;;;6.65;1.30;;;;;;;;;;4983205;28;20204;-57
2021/11/14 05:32:12;;;;;;;4.13;1.40;;;;;;;;;;4981096;28;20505;-57
2021/11/14 05:34:38;;;;;;;7.75;1.92;;;;;;;;;;4982485;28;21950;-58
2021/11/14 05:37:04;;;;;;;7.05;1.50;;;;;;;;;;4982357;28;20042;-54
2021/11/14 05:39:30;;;;;;;6.05;1.50;;;;;;;;;;4982575;28;20095;-55
2021/11/14 05:41:56;;;;;;;8.48;1.73;;;;;;;;;;4981064;28;20038;-58
2021/11/14 05:44:22;;;;;;;6.78;1.42;;;;;;;;;;4982175;28;20097;-57
2021/11/14 05:46:48;;;;;;;5.38;1.35;;;;;;;;;;4977960;28;20035;-56
2021/11/14 05:49:14;;;;;;;4.93;1.45;;;;;;;;;;5011095;28;20459;-54
2021/11/14 05:51:41;;;;;;;6.13;1.85;;;;;;;;;;5021125;28;20042;-57
2021/11/14 05:54:06;;;;;;;3.75;1.38;;;;;;;;;;5021815;28;20037;-57
2021/11/14 05:56:32;;;;;;;5.18;1.60;;;;;;;;;;5021002;28;20048;-55
2021/11/14 06:01:35;;;;;;;4.43;1.58;;;;;;;;;;5019516;28;20611;-56
2021/11/14 06:06:45;;;;;;;4.25;1.90;;;;;;;;;;5020013;28;20052;-57
2021/11/14 06:09:11;;;;;;;4.50;1.80;;;;;;;;;;5021150;28;20029;-54
2021/11/14 06:11:37;;;;;;;5.05;1.80;;;;;;;;;;5019850;28;21864;-56
2021/11/14 06:14:03;;;;;;;6.07;1.90;;;;;;;;;;5019897;28;20140;-55
2021/11/14 06:16:29;;;;;;;5.93;1.80;;;;;;;;;;5019305;28;20033;-55
2021/11/14 06:18:56;;;;;;;4.28;1.67;;;;;;;;;;5021493;28;20127;-55
2021/11/14 06:21:22;;;;;;;9.75;1.77;;;;;;;;;;5018676;28;20611;-55
2021/11/14 06:23:49;;;;;;;6.10;2.05;;;;;;;;;;5019717;28;20036;-54
2021/11/14 06:26:14;;;;;;;5.85;2.10;;;;;;;;;;5019946;28;20060;-55
2021/11/14 06:28:40;;;;;;;7.45;2.08;;;;;;;;;;5019879;28;20041;-55
2021/11/14 06:31:06;;;;;;;10.48;2.08;;;;;;;;;;5021152;28;20196;-54
2021/11/14 06:33:32;;;;;;;7.40;2.40;;;;;;;;;;5019819;28;20458;-55
2021/11/14 06:35:58;;;;;;;5.90;2.33;;;;;;;;;;5020382;28;20091;-56
2021/11/14 06:38:24;;;;;;;7.15;2.38;;;;;;;;;;5019052;28;20047;-56
2021/11/14 06:40:50;;;;;;;4.43;1.95;;;;;;;;;;5019920;28;20095;-56
2021/11/14 06:43:15;;;;;;;5.75;2.33;;;;;;;;;;5018334;28;20138;-53
2021/11/14 06:45:41;;;;;;;5.30;2.17;;;;;;;;;;5018486;28;20092;-57
2021/11/14 06:48:07;;;;;;;5.30;1.90;;;;;;;;;;5019928;28;20132;-57
2021/11/14 06:50:33;;;;;;;5.00;1.92;;;;;;;;;;5018618;28;21812;-57
2021/11/14 06:52:59;;;;;;;4.00;1.63;;;;;;;;;;5019946;28;20030;-56
2021/11/14 06:55:24;;;;;;;4.78;1.90;;;;;;;;;;5018498;28;20152;-57
2021/11/14 06:57:50;;;;;;;5.38;1.63;;;;;;;;;;5019166;28;20033;-57
2021/11/14 07:00:19;;;;;;;5.78;1.90;;;;;;;;;;5019715;28;20042;-57
2021/11/14 07:02:45;;;;;;;4.68;1.35;;;;;;;;;;5043669;28;20049;-53
2021/11/14 07:05:11;;;;;;;4.20;1.45;;;;;;;;;;5046498;28;20048;-55
2021/11/14 07:07:37;;;;;;;4.93;1.83;;;;;;;;;;5045732;28;20056;-58
2021/11/14 07:10:04;;;;;;;5.57;1.70;;;;;;;;;;5046187;28;20044;-56
2021/11/14 07:12:30;;;;;;;7.95;1.80;;;;;;;;;;5046115;28;20036;-55
2021/11/14 07:14:56;;;;;;;10.35;1.67;;;;;;;;;;5047747;28;20508;-56
2021/11/14 07:17:22;;;;;;;4.55;1.50;;;;;;;;;;5047292;28;20063;-57
2021/11/14 07:19:49;;;;;;;3.15;1.20;;;;;;;;;;5030220;28;20086;-58
2021/11/14 07:22:14;;;;;;;1.95;0.77;;;;;;;;;;5044619;28;20495;-56
2021/11/14 07:24:40;;;;;;;2.95;0.80;;;;;;;;;;5045166;28;20180;-58
2021/11/14 07:27:06;;;;;;;4.00;0.90;;;;;;;;;;5031151;28;20037;-58
2021/11/14 07:29:32;;;;;;;7.38;0.93;;;;;;;;;;5025363;28;20068;-56
2021/11/14 07:32:00;;;;;;;4.70;1.77;;;;;;;;;;5024097;28;20065;-55
2021/11/14 07:34:26;;;;;;;4.47;1.80;;;;;;;;;;5025571;28;20041;-55
2021/11/14 07:36:52;;;;;;;5.18;1.80;;;;;;;;;;5026169;28;20045;-54
2021/11/14 07:39:18;;;;;;;8.10;2.05;;;;;;;;;;5024000;28;20036;-56
2021/11/14 07:41:45;;;;;;;5.28;1.77;;;;;;;;;;5023392;28;20171;-55
2021/11/14 07:44:10;;;;;;;5.28;1.80;;;;;;;;;;5026210;28;20045;-56
2021/11/14 07:46:36;;;;;;;3.78;1.10;;;;;;;;;;5022795;28;20038;-56
2021/11/14 07:49:03;;;;;;;5.53;0.60;;;;;;;;;;5025302;28;20068;-57
2021/11/14 07:51:29;;;;;;;2.58;0.80;;;;;;;;;;5024796;28;20041;-54
2021/11/14 07:53:55;;;;;;;3.67;0.65;;;;;;;;;;5026113;28;20028;-57
2021/11/14 07:56:21;;;;;;;2.40;0.57;;;;;;;;;;5027079;28;20065;-57
2021/11/14 07:58:47;;;;;;;1.50;0.60;;;;;;;;;;5027418;28;20775;-56
2021/11/14 08:01:13;;;;;;;2.40;0.70;;;;;;;;;;5025987;28;20098;-56
2021/11/14 08:03:39;;;;;;;1.73;0.60;;;;;;;;;;5026255;28;20045;-57
2021/11/14 08:06:06;;;;;;;1.80;0.60;;;;;;;;;;5026521;28;20054;-55
2021/11/14 08:08:32;;;;;;;2.40;0.70;;;;;;;;;;5024876;28;20044;-54
2021/11/14 08:10:58;;;;;;;1.80;0.50;;;;;;;;;;5025404;28;20046;-57
2021/11/14 08:13:24;;;;;;;2.40;0.60;;;;;;;;;;5026761;28;20040;-57
2021/11/14 08:15:50;;;;;;;4.38;0.65;;;;;;;;;;5029597;28;20064;-56
2021/11/14 08:18:19;;;;;;;2.58;0.70;;;;;;;;;;5028757;28;21858;-57
2021/11/14 08:20:46;;;;;;;3.72;0.60;;;;;;;;;;5047804;28;20048;-56
2021/11/14 08:23:14;;;;;;;1.90;0.60;;;;;;;;;;5048278;28;20113;-56
2021/11/14 08:25:40;;;;;;;2.08;0.70;;;;;;;;;;5047495;28;20059;-56
2021/11/14 08:28:06;;;;;;;2.53;0.68;;;;;;;;;;5051071;28;20159;-56
2021/11/14 08:30:32;;;;;;;2.60;0.80;;;;;;;;;;5050314;28;20704;-54
2021/11/14 08:32:58;;;;;;;1.52;0.60;;;;;;;;;;5048200;28;20060;-57
2021/11/14 08:35:24;;;;;;;1.92;0.63;;;;;;;;;;5047768;28;20132;-58
2021/11/14 08:37:53;;;;;;;4.53;0.88;;;;;;;;;;5048079;28;20443;-56
2021/11/14 08:40:19;;;;;;;2.20;0.80;;;;;;;;;;5046962;28;20036;-57
2021/11/14 08:42:45;;;;;;;8.25;1.20;;;;;;;;;;5046754;28;20053;-56
2021/11/14 08:45:11;;;;;;;3.63;1.30;;;;;;;;;;5048905;28;20041;-56
2021/11/14 08:47:37;;;;;;;5.68;1.20;;;;;;;;;;5048315;28;20045;-57
2021/11/14 08:50:03;;;;;;;2.45;1.00;;;;;;;;;;5048434;28;21962;-56
2021/11/14 08:52:29;;;;;;;5.55;1.20;;;;;;;;;;5047735;28;20032;-53
2021/11/14 08:54:55;;;;;;;2.65;0.98;;;;;;;;;;5049037;28;20051;-57
2021/11/14 08:57:21;;;;;;;3.38;1.00;;;;;;;;;;5048139;28;20509;-52
2021/11/14 08:59:47;;;;;;;3.90;1.00;;;;;;;;;;5048110;28;20048;-55
2021/11/14 09:02:14;;;;;;;3.17;0.90;;;;;;;;;;5049501;28;20512;-55
2021/11/14 09:04:40;;;;;;;2.30;0.90;;;;;;;;;;5047419;28;20056;-55
2021/11/14 09:07:06;;;;;;;2.15;0.70;;;;;;;;;;5044674;28;20040;-55
2021/11/14 09:09:32;;;;;;;3.97;0.80;;;;;;;;;;5047911;28;20396;-54
2021/11/14 09:11:58;;;;;;;2.75;0.88;;;;;;;;;;5049506;28;20090;-54
2021/11/14 09:14:24;;;;;;;2.35;0.80;;;;;;;;;;5050634;28;20043;-57
2021/11/14 09:16:51;;;;;;;4.40;1.15;;;;;;;;;;5032626;28;20064;-57
2021/11/14 09:19:17;;;;;;;3.13;0.85;;;;;;;;;;5049259;28;20040;-56
2021/11/14 09:21:43;;;;;;;4.10;1.00;;;;;;;;;;5048977;28;20044;-55
2021/11/14 09:24:09;;;;;;;3.13;0.90;;;;;;;;;;5031461;28;20036;-57
2021/11/14 09:26:37;;;;;;;1.98;0.70;;;;;;;;;;5049126;28;20508;-57
2021/11/14 09:29:03;;;;;;;3.00;0.82;;;;;;;;;;5049234;28;20052;-57
2021/11/14 09:31:29;;;;;;;5.75;1.05;;;;;;;;;;5047916;28;20029;-57
2021/11/14 09:33:57;;;;;;;3.30;1.08;;;;;;;;;;5047530;28;20056;-56
2021/11/14 09:36:23;;;;;;;3.65;1.00;;;;;;;;;;5047609;28;20043;-54
2021/11/14 09:38:51;;;;;;;3.33;1.00;;;;;;;;;;5048326;28;20028;-55
2021/11/14 09:41:18;;;;;;;3.25;0.90;;;;;;;;;;5047928;28;20024;-54
2021/11/14 09:43:44;;;;;;;2.08;0.70;;;;;;;;;;5047381;28;20029;-56
2021/11/14 09:46:09;;;;;;;2.33;0.80;;;;;;;;;;5047886;28;20079;-57
2021/11/14 09:48:35;;;;;;;3.00;1.10;;;;;;;;;;5047808;28;20139;-55
2021/11/14 09:51:01;;;;;;;7.18;0.82;;;;;;;;;;5048209;28;20041;-52
2021/11/14 09:53:32;;;;;;;2.25;0.80;;;;;;;;;;5046087;28;20037;-56
2021/11/14 09:55:58;;;;;;;2.70;0.90;;;;;;;;;;5048067;28;20045;-56
2021/11/14 09:58:24;;;;;;;2.85;0.90;;;;;;;;;;5046284;28;20527;-57
2021/11/14 10:00:50;;;;;;;1.67;0.65;;;;;;;;;;5046832;28;20033;-56
2021/11/14 10:03:17;;;;;;;2.92;1.00;;;;;;;;;;5045627;28;20053;-56
2021/11/14 10:05:42;;;;;;;4.18;1.00;;;;;;;;;;5045652;28;20055;-56
2021/11/14 10:08:09;;;;;;;2.50;0.77;;;;;;;;;;5047266;28;20052;-55
2021/11/14 10:10:55;;;;;;;2.33;0.70;;;;;;;;;;5047587;28;20605;-56
2021/11/14 10:13:23;;;;;;;2.30;0.80;;;;;;;;;;5046548;28;20036;-57
2021/11/14 10:15:50;;;;;;;2.55;0.75;;;;;;;;;;5046802;28;20079;-56
2021/11/14 10:18:18;;;;;;;1.95;0.60;;;;;;;;;;5045432;28;20044;-57
2021/11/14 10:20:44;;;;;;;6.80;1.20;;;;;;;;;;5046740;28;20037;-57
2021/11/14 10:23:12;;;;;;;2.80;0.90;;;;;;;;;;5046629;28;20077;-56
2021/11/14 10:25:38;;;;;;;4.40;1.30;;;;;;;;;;5045294;28;20042;-57
2021/11/14 10:28:04;;;;;;;2.25;0.70;;;;;;;;;;5046859;28;20033;-57
2021/11/14 10:30:31;;;;;;;6.75;0.75;;;;;;;;;;5045161;28;20057;-56
2021/11/14 10:32:59;;;;;;;5.53;0.80;;;;;;;;;;5027677;28;20029;-56
2021/11/14 10:35:25;;;;;;;2.03;0.65;;;;;;;;;;5027770;28;20041;-58
2021/11/14 10:37:52;;;;;;;2.03;0.70;;;;;;;;;;5033469;28;20042;-56
2021/11/14 10:40:20;;;;;;;2.42;0.60;;;;;;;;;;5020730;28;20070;-56
2021/11/14 10:43:04;;;;;;;2.67;0.80;;;;;;;;;;5018811;28;20057;-56
2021/11/14 10:45:31;;;;;;;2.08;0.70;;;;;;;;;;5019671;28;20037;-57
2021/11/14 10:47:59;;;;;;;4.65;0.77;;;;;;;;;;5020297;28;20520;-56
2021/11/14 10:50:28;;;;;;;2.50;0.70;;;;;;;;;;5021263;28;20091;-56
2021/11/14 10:52:57;;;;;;;2.03;0.60;;;;;;;;;;5019926;28;20041;-57
2021/11/14 10:55:25;;;;;;;2.42;0.88;;;;;;;;;;5020009;28;20141;-57
2021/11/14 10:57:51;;;;;;;2.70;0.82;;;;;;;;;;5022060;28;20116;-54
2021/11/14 11:00:19;;;;;;;3.15;0.82;;;;;;;;;;5022128;28;20105;-56
2021/11/14 11:02:46;;;;;;;2.55;0.73;;;;;;;;;;5045124;28;20048;-56
2021/11/14 11:05:16;;;;;;;1.90;0.70;;;;;;;;;;5029419;28;20067;-58
2021/11/14 11:07:42;;;;;;;2.13;0.70;;;;;;;;;;5028769;28;20033;-58
2021/11/14 11:10:08;;;;;;;3.55;0.70;;;;;;;;;;5044992;28;20120;-57
2021/11/14 11:12:35;;;;;;;2.53;0.70;;;;;;;;;;5044471;28;20036;-57
2021/11/14 11:15:08;;;;;;;2.50;0.80;;;;;;;;;;5045915;28;20041;-56
2021/11/14 11:17:48;;;;;;;2.53;0.60;;;;;;;;;;5047351;28;20087;-57
2021/11/14 11:20:14;;;;;;;2.75;0.80;;;;;;;;;;5046757;28;20127;-56
2021/11/14 11:22:55;;;;;;;2.97;0.70;;;;;;;;;;5004457;28;20168;-58
2021/11/14 11:25:28;;;;;;;4.13;0.90;;;;;;;;;;5025089;28;20041;-57
2021/11/14 11:27:55;;;;;;;2.63;0.90;;;;;;;;;;5025439;28;20076;-58
2021/11/14 11:30:35;;;;;;;2.45;0.70;;;;;;;;;;5034595;28;20072;-57
2021/11/14 11:33:01;;;;;;;3.08;0.80;;;;;;;;;;5025127;28;20083;-56
2021/11/14 11:35:27;;;;;;;2.40;0.90;;;;;;;;;;5026527;28;20041;-57
2021/11/14 11:37:53;;;;;;;3.75;0.85;;;;;;;;;;5028099;28;20041;-56
2021/11/14 11:40:19;;;;;;;2.72;0.85;;;;;;;;;;5027745;28;20099;-57
2021/11/14 11:42:44;;;;;;;2.70;0.80;;;;;;;;;;5006537;28;20063;-56
2021/11/14 11:45:11;;;;;;;3.85;0.82;;;;;;;;;;5026647;28;20037;-57
2021/11/14 11:47:39;;;;;;;2.90;0.80;;;;;;;;;;5025377;28;20145;-56
2021/11/14 11:50:06;;;;;;;2.60;0.88;;;;;;;;;;5026560;28;20068;-57
2021/11/14 11:52:39;;;;;;;3.25;0.93;;;;;;;;;;5024881;28;20048;-58
2021/11/14 11:55:16;;;;;;;3.10;1.00;;;;;;;;;;5026463;28;20041;-57
2021/11/14 11:57:42;;;;;;;4.32;1.15;;;;;;;;;;5025263;28;22662;-55
2021/11/14 12:00:08;;;;;;;5.60;1.17;;;;;;;;;;5026688;28;20045;-57
2021/11/14 12:02:34;;;;;;;3.65;0.88;;;;;;;;;;5004774;28;20399;-53
2021/11/14 12:05:07;;;;;;;3.08;0.90;;;;;;;;;;5023808;28;20111;-57
2021/11/14 12:07:35;;;;;;;3.30;1.00;;;;;;;;;;5026619;28;20160;-55
2021/11/14 12:10:10;;;;;;;3.28;1.10;;;;;;;;;;5026422;28;20040;-57
2021/11/14 12:12:44;;;;;;;3.25;0.95;;;;;;;;;;5025794;28;20511;-56
2021/11/14 12:15:11;;;;;;;3.03;0.93;;;;;;;;;;5027983;28;20033;-55
2021/11/14 12:17:37;;;;;;;4.95;0.88;;;;;;;;;;5026228;28;20586;-56
2021/11/14 12:20:07;;;;;;;4.55;1.17;;;;;;;;;;5027275;28;20061;-57
2021/11/14 12:22:40;;;;;;;3.80;1.20;;;;;;;;;;5024306;28;20394;-56
2021/11/14 12:25:06;;;;;;;3.17;1.20;;;;;;;;;;5024293;28;20727;-57
2021/11/14 12:27:34;;;;;;;2.63;0.82;;;;;;;;;;5023652;28;20049;-56
2021/11/14 12:30:02;;;;;;;3.45;0.90;;;;;;;;;;5026115;28;20041;-57
2021/11/14 12:32:42;;;;;;;2.60;0.82;;;;;;;;;;5025552;28;20053;-58
2021/11/14 12:35:22;;;;;;;3.70;0.95;;;;;;;;;;5036243;28;20041;-57
2021/11/14 12:37:54;;;;;;;4.53;1.10;;;;;;;;;;5046205;28;20052;-56
2021/11/14 12:40:22;;;;;;;2.80;0.90;;;;;;;;;;5044670;28;20132;-57
2021/11/14 12:42:51;;;;;;;3.45;0.90;;;;;;;;;;5044374;28;20045;-55
2021/11/14 12:45:18;;;;;;;4.95;1.17;;;;;;;;;;5043678;28;20255;-56
2021/11/14 12:47:48;;;;;;;2.45;0.82;;;;;;;;;;5044229;28;20028;-56
2021/11/14 12:50:25;;;;;;;5.20;1.10;;;;;;;;;;5010330;28;20035;-57
2021/11/14 12:53:02;;;;;;;3.08;0.93;;;;;;;;;;5042186;28;20033;-57
2021/11/14 12:55:28;;;;;;;3.72;0.77;;;;;;;;;;5043605;28;20041;-56
2021/11/14 12:57:55;;;;;;;2.50;0.90;;;;;;;;;;5044490;28;20117;-54
2021/11/14 13:00:32;;;;;;;3.40;0.80;;;;;;;;;;5047860;28;20090;-56
2021/11/14 13:02:58;;;;;;;2.53;0.80;;;;;;;;;;5048590;28;20059;-56
2021/11/14 13:05:25;;;;;;;2.40;0.70;;;;;;;;;;5047453;28;21602;-56
2021/11/14 13:08:01;;;;;;;6.40;0.70;;;;;;;;;;5047237;28;20505;-56
2021/11/14 13:10:34;;;;;;;2.35;0.80;;;;;;;;;;5033996;28;20040;-56
2021/11/14 13:13:02;;;;;;;2.15;0.70;;;;;;;;;;5010260;28;20044;-57
2021/11/14 13:15:28;;;;;;;6.28;0.93;;;;;;;;;;5027195;28;20053;-57
2021/11/14 13:17:55;;;;;;;2.42;0.70;;;;;;;;;;5027037;28;20056;-57
2021/11/14 13:20:23;;;;;;;2.20;0.60;;;;;;;;;;5027193;28;20069;-56
2021/11/14 13:22:50;;;;;;;1.83;0.60;;;;;;;;;;5027992;28;20064;-56
2021/11/14 13:25:20;;;;;;;1.70;0.55;;;;;;;;;;5028176;28;20044;-57
2021/11/14 13:27:46;;;;;;;2.67;0.70;;;;;;;;;;5048597;28;20041;-57
2021/11/14 13:30:12;;;;;;;2.20;0.60;;;;;;;;;;5048490;28;20071;-56
2021/11/14 13:32:38;;;;;;;3.97;0.70;;;;;;;;;;5046744;28;20124;-57
2021/11/14 13:35:04;;;;;;;1.95;0.70;;;;;;;;;;5047920;28;20063;-56
2021/11/14 13:37:34;;;;;;;2.70;0.80;;;;;;;;;;5045378;28;20460;-56
2021/11/14 13:40:06;;;;;;;3.22;0.68;;;;;;;;;;5048456;28;20033;-55
2021/11/14 13:42:36;;;;;;;1.85;0.60;;;;;;;;;;5047529;28;20140;-55
2021/11/14 13:45:05;;;;;;;2.97;0.73;;;;;;;;;;5048126;28;20093;-56
2021/11/14 13:47:33;;;;;;;4.35;0.93;;;;;;;;;;5047326;28;20040;-56
2021/11/14 13:50:00;;;;;;;1.58;0.50;;;;;;;;;;5047561;28;20040;-56
2021/11/14 13:52:26;;;;;;;1.92;0.60;;;;;;;;;;5047538;28;20072;-55
2021/11/14 13:54:56;;;;;;;5.22;0.70;;;;;;;;;;5047679;28;20041;-57
2021/11/14 13:57:24;;;;;;;1.73;0.50;;;;;;;;;;5047927;28;20643;-56
2021/11/14 13:59:50;;;;;;;2.63;0.70;;;;;;;;;;5047637;28;20090;-56
2021/11/14 14:02:16;;;;;;;2.72;0.82;;;;;;;;;;5049360;28;20087;-55
2021/11/14 14:04:54;;;;;;;2.33;0.80;;;;;;;;;;5045755;28;20116;-55
2021/11/14 14:07:20;;;;;;;3.67;0.80;;;;;;;;;;5045989;28;20071;-56
2021/11/14 14:10:04;;;;;;;2.53;0.80;;;;;;;;;;5045699;28;20037;-56
2021/11/14 14:12:31;;;;;;;2.75;0.60;;;;;;;;;;5047008;28;20055;-55
2021/11/14 14:15:02;;;;;;;1.65;0.68;;;;;;;;;;5046667;28;20102;-55
2021/11/14 14:17:28;;;;;;;1.40;0.60;;;;;;;;;;5045716;28;20337;-57
2021/11/14 14:19:59;;;;;;;3.85;0.80;;;;;;;;;;5047164;28;20043;-56
2021/11/14 14:22:36;;;;;;;1.98;0.65;;;;;;;;;;5044206;28;20056;-56
2021/11/14 14:25:02;;;;;;;2.17;0.63;;;;;;;;;;5045155;28;20110;-60
2021/11/14 14:27:28;;;;;;;1.63;0.60;;;;;;;;;;5046324;28;20140;-53
2021/11/14 14:30:05;;;;;;;2.65;0.93;;;;;;;;;;5046761;28;20173;-57
2021/11/14 14:32:31;;;;;;;1.77;0.60;;;;;;;;;;5046460;28;20140;-54
2021/11/14 14:35:07;;;;;;;2.58;0.77;;;;;;;;;;5046598;28;20424;-57
2021/11/14 14:37:52;;;;;;;3.95;0.43;;;;;;;;;;5044356;28;20068;-57
2021/11/14 14:40:31;;;;;;;2.58;0.50;;;;;;;;;;5029129;28;20056;-56
2021/11/14 14:42:56;;;;;;;2.55;0.60;;;;;;;;;;5025704;28;21946;-56
2021/11/14 14:45:24;;;;;;;1.70;0.60;;;;;;;;;;5023702;28;20132;-57
2021/11/14 14:47:59;;;;;;;2.20;0.70;;;;;;;;;;5025406;28;20095;-55